Time;durP1;ratioP1;P1;durP2;ratioP2;P2;SDS_P1;SDS_P2;PMS_P1;PMS_P2;Temp;Humidity;BMP_temperature;BMP_pressure;BME280_temperature;BME280_humidity;BME280_pressure;Samples;Min_cycle;Max_cycle;Signal;HPM_P1;HPM_P2
2023/07/21 00:03:26;;;;;;;30.80;26.73;;;;;;;26.92;54.74;101107.97;21081313;28;20078;-69
2023/07/21 00:13:28;;;;;;;31.23;25.25;;;;;;;27.07;54.40;101116.03;21081741;28;20449;-68
2023/07/21 00:23:31;;;;;;;32.55;27.13;;;;;;;27.20;54.17;101106.75;21081301;28;20491;-68
2023/07/21 00:33:33;;;;;;;32.65;28.08;;;;;;;27.26;54.31;101099.84;21081333;28;20402;-69
2023/07/21 00:43:34;;;;;;;34.25;28.83;;;;;;;27.38;54.23;101098.44;21080259;28;20036;-68
2023/07/21 00:53:36;;;;;;;34.35;27.90;;;;;;;27.39;54.12;101071.97;21079984;28;20445;-70
2023/07/21 01:03:39;;;;;;;32.95;26.90;;;;;;;27.51;54.09;101077.84;21078100;28;20457;-69
2023/07/21 01:13:43;;;;;;;34.78;27.30;;;;;;;27.57;54.02;101070.91;21077763;28;20468;-70
2023/07/21 01:23:56;;;;;;;34.13;28.13;;;;;;;27.61;53.92;101085.97;21076103;28;20093;-68
2023/07/21 01:34:00;;;;;;;33.33;28.08;;;;;;;27.67;54.00;101109.97;21076257;28;20040;-69
2023/07/21 01:44:02;;;;;;;32.38;27.08;;;;;;;27.73;53.64;101110.72;21079299;28;20055;-67
2023/07/21 01:54:09;;;;;;;33.33;28.75;;;;;;;27.74;53.55;101104.78;21092158;28;20109;-69
2023/07/21 02:04:11;;;;;;;33.30;27.15;;;;;;;27.78;53.50;101088.91;21093354;28;20089;-69
2023/07/21 02:14:13;;;;;;;32.65;27.48;;;;;;;27.81;53.59;101085.47;21073215;28;20040;-69
2023/07/21 02:24:14;;;;;;;33.75;27.45;;;;;;;27.82;53.19;101073.06;21090797;28;20024;-69
2023/07/21 02:34:16;;;;;;;32.85;26.27;;;;;;;27.81;53.31;101046.09;21090504;28;20044;-69
2023/07/21 02:44:18;;;;;;;34.00;28.50;;;;;;;27.87;53.11;101055.19;21086944;28;20097;-70
2023/07/21 02:54:19;;;;;;;31.30;27.38;;;;;;;27.90;52.90;101046.09;21087491;28;20451;-69
2023/07/21 03:04:23;;;;;;;33.40;27.42;;;;;;;27.91;53.12;101046.94;21087893;28;20062;-70
2023/07/21 03:14:25;;;;;;;31.08;26.83;;;;;;;27.93;53.06;101034.19;21085598;28;20097;-68
2023/07/21 03:24:27;;;;;;;32.53;26.42;;;;;;;27.98;52.95;101016.34;21085994;28;20036;-69
2023/07/21 03:34:28;;;;;;;30.50;25.67;;;;;;;28.00;52.79;100999.97;21082095;28;20109;-68
2023/07/21 03:44:29;;;;;;;32.95;26.38;;;;;;;28.02;52.89;100983.59;21082745;28;20048;-67
2023/07/21 03:54:31;;;;;;;31.25;26.02;;;;;;;28.05;52.45;100958.47;21081509;28;20039;-68
2023/07/21 04:04:33;;;;;;;31.40;26.33;;;;;;;28.06;52.72;100964.91;21081281;28;20036;-68
2023/07/21 04:14:35;;;;;;;29.73;25.52;;;;;;;28.08;52.71;100954.13;21081020;28;20048;-69
2023/07/21 04:24:37;;;;;;;30.33;25.23;;;;;;;28.05;52.75;100923.88;21081274;28;20443;-69
2023/07/21 04:34:38;;;;;;;29.65;25.58;;;;;;;28.08;52.72;100945.69;21080100;28;20587;-69
2023/07/21 04:44:39;;;;;;;29.48;24.90;;;;;;;28.14;52.56;100943.56;21079192;28;20036;-69
2023/07/21 04:54:41;;;;;;;28.80;24.55;;;;;;;28.03;52.63;100937.44;21078876;28;20372;-68
2023/07/21 05:04:42;;;;;;;30.77;24.38;;;;;;;28.14;52.66;100952.84;21077644;28;20403;-68
2023/07/21 05:14:44;;;;;;;27.35;23.52;;;;;;;28.13;52.48;100942.72;21075530;28;20441;-69
2023/07/21 05:24:46;;;;;;;28.02;23.05;;;;;;;28.17;52.31;100904.31;21076352;28;20066;-69
2023/07/21 05:34:49;;;;;;;26.30;22.40;;;;;;;28.20;52.23;100892.41;21076752;28;20065;-68
2023/07/21 05:44:50;;;;;;;25.73;22.48;;;;;;;28.20;52.24;100878.34;21075881;28;20101;-69
2023/07/21 05:54:52;;;;;;;27.20;22.23;;;;;;;28.19;52.24;100859.81;21075184;28;20541;-68
2023/07/21 06:04:56;;;;;;;24.20;21.05;;;;;;;28.18;52.10;100849.75;21075038;28;20093;-69
2023/07/21 06:14:57;;;;;;;24.50;21.50;;;;;;;28.19;51.96;100817.63;21074825;28;20097;-68
2023/07/21 06:25:03;;;;;;;26.27;22.05;;;;;;;28.26;51.94;100836.78;21075069;28;20036;-69
2023/07/21 06:35:05;;;;;;;24.17;19.90;;;;;;;28.28;51.96;100820.41;21083021;28;20048;-67
2023/07/21 06:45:09;;;;;;;24.42;20.55;;;;;;;28.14;52.14;100800.91;21087762;28;20364;-67
2023/07/21 06:55:11;;;;;;;22.67;19.67;;;;;;;28.27;52.08;100825.22;21087214;28;20101;-68
2023/07/21 07:05:13;;;;;;;23.63;20.88;;;;;;;28.27;51.76;100825.22;21086866;28;20032;-68
2023/07/21 07:15:15;;;;;;;24.40;21.05;;;;;;;28.32;52.01;100815.78;21085851;28;20105;-68
2023/07/21 07:25:16;;;;;;;23.45;20.75;;;;;;;28.28;52.10;100820.41;21085196;28;20093;-69
2023/07/21 07:35:19;;;;;;;22.98;19.45;;;;;;;28.27;52.05;100796.25;21083773;28;20040;-69
2023/07/21 07:45:20;;;;;;;23.02;19.25;;;;;;;28.32;52.00;100805.34;21083878;28;20062;-68
2023/07/21 07:55:21;;;;;;;23.83;19.95;;;;;;;28.34;51.79;100802.19;21082836;28;20446;-68
2023/07/21 08:05:23;;;;;;;22.42;19.88;;;;;;;28.36;51.92;100800.75;21081992;28;20420;-68
2023/07/21 08:15:25;;;;;;;22.05;19.05;;;;;;;28.35;51.75;100858.16;21081573;28;20028;-68
2023/07/21 08:25:26;;;;;;;22.30;19.23;;;;;;;28.35;51.64;100863.78;21080380;28;20086;-68
2023/07/21 08:35:28;;;;;;;20.63;17.75;;;;;;;28.23;51.85;100838.31;21079734;28;20052;-67
2023/07/21 08:45:33;;;;;;;21.00;18.52;;;;;;;28.34;51.79;100879.03;21078762;28;20048;-68
2023/07/21 08:55:35;;;;;;;20.98;17.98;;;;;;;28.33;51.78;100845.56;21077658;28;20048;-67
2023/07/21 09:05:36;;;;;;;17.85;15.30;;;;;;;28.00;51.79;100794.66;21077956;28;20059;-69
2023/07/21 09:15:38;;;;;;;20.15;17.30;;;;;;;28.31;51.78;100836.63;21077101;28;20479;-67
2023/07/21 09:25:48;;;;;;;18.30;16.10;;;;;;;28.35;51.67;100877.84;21075022;28;20036;-68
2023/07/21 09:36:04;;;;;;;18.00;15.73;;;;;;;28.38;51.58;100875.56;21076229;28;20044;-68
2023/07/21 09:46:08;;;;;;;17.75;15.85;;;;;;;28.36;51.75;100887.97;21076577;28;20060;-68
2023/07/21 09:56:11;;;;;;;18.38;16.27;;;;;;;28.35;51.81;100900.38;21075640;28;20044;-68
2023/07/21 10:06:15;;;;;;;17.77;15.88;;;;;;;28.20;51.86;100864.28;21080506;28;20036;-68
2023/07/21 10:16:21;;;;;;;16.77;14.38;;;;;;;28.25;51.71;100832.34;21091371;28;20081;-67
2023/07/21 10:26:25;;;;;;;16.40;13.90;;;;;;;28.33;51.63;100843.56;21089758;28;20387;-69
2023/07/21 10:36:40;;;;;;;15.15;13.38;;;;;;;28.33;51.59;100840.75;21088965;28;20055;-69
2023/07/21 10:46:44;;;;;;;14.80;13.10;;;;;;;28.34;51.59;100831.19;21088591;28;20093;-68
2023/07/21 10:56:47;;;;;;;14.32;12.70;;;;;;;28.30;51.99;100812.47;21087784;28;20036;-69
2023/07/21 11:06:55;;;;;;;15.27;13.20;;;;;;;28.22;51.58;100726.91;21087224;28;20089;-69
2023/07/21 11:17:01;;;;;;;13.63;12.10;;;;;;;28.23;51.80;100691.19;21084981;28;20040;-69
2023/07/21 11:27:06;;;;;;;14.25;12.75;;;;;;;28.38;51.65;100687.00;21084921;28;20032;-69
2023/07/21 11:37:07;;;;;;;13.48;12.05;;;;;;;28.32;51.76;100663.81;21083655;28;20101;-70
2023/07/21 11:47:10;;;;;;;14.48;11.75;;;;;;;28.28;51.62;100645.97;21082930;28;20552;-68
2023/07/21 11:57:12;;;;;;;13.10;11.70;;;;;;;28.33;51.74;100635.34;21081978;28;20105;-68
2023/07/21 12:07:16;;;;;;;12.55;10.90;;;;;;;28.34;51.71;100658.66;21081698;28;20372;-68
2023/07/21 12:17:17;;;;;;;13.43;10.45;;;;;;;28.32;51.74;100653.38;21080729;28;20044;-68
2023/07/21 12:27:18;;;;;;;11.43;9.93;;;;;;;28.35;51.70;100657.53;21078979;28;20044;-69
2023/07/21 12:37:20;;;;;;;11.05;9.82;;;;;;;28.33;51.72;100649.41;21078732;28;20090;-69
2023/07/21 12:47:21;;;;;;;10.55;9.10;;;;;;;28.38;51.61;100672.94;21079087;28;20032;-69
2023/07/21 12:57:23;;;;;;;11.07;9.18;;;;;;;28.38;51.44;100661.66;21077715;28;20475;-69
2023/07/21 13:07:24;;;;;;;10.13;9.10;;;;;;;28.28;51.44;100652.41;21077344;28;20036;-68
2023/07/21 13:17:26;;;;;;;9.75;8.75;;;;;;;28.41;51.68;100666.59;21074930;28;20076;-69
2023/07/21 13:27:28;;;;;;;9.48;8.48;;;;;;;28.39;51.71;100652.06;21075925;28;20395;-69
2023/07/21 13:37:29;;;;;;;9.35;8.35;;;;;;;28.42;51.74;100657.03;21075761;28;20048;-68
2023/07/21 13:47:31;;;;;;;10.15;8.32;;;;;;;28.44;51.54;100655.50;21091701;28;20376;-68
2023/07/21 13:57:32;;;;;;;9.45;7.82;;;;;;;28.43;51.38;100639.78;21090460;28;20439;-68
2023/07/21 14:07:34;;;;;;;8.93;7.57;;;;;;;28.46;51.40;100655.19;21091799;28;20029;-68
2023/07/21 14:17:36;;;;;;;9.40;7.93;;;;;;;28.49;51.57;100658.13;21091596;28;20048;-68
2023/07/21 14:27:37;;;;;;;8.18;7.28;;;;;;;28.49;51.29;100663.75;21089279;28;20036;-68
2023/07/21 14:37:40;;;;;;;9.23;7.28;;;;;;;28.54;51.23;100671.16;21089120;28;20495;-68
2023/07/21 14:47:42;;;;;;;8.93;7.70;;;;;;;28.56;51.40;100685.75;21088205;28;20357;-69
2023/07/21 14:57:43;;;;;;;8.73;7.57;;;;;;;28.32;51.03;100635.69;21085366;28;20105;-74
2023/07/21 15:07:46;;;;;;;7.93;6.88;;;;;;;28.56;51.39;100685.75;21051297;28;20040;-74
2023/07/21 15:17:47;;;;;;;9.65;7.82;;;;;;;28.59;51.32;100697.16;21082187;28;20082;-69
2023/07/21 15:27:48;;;;;;;22.15;7.60;;;;;;;28.08;49.78;100703.78;21066983;28;20040;-69
2023/07/21 15:37:50;;;;;;;17.35;7.45;;;;;;;27.75;49.68;100690.31;21039236;28;20506;-70
2023/07/21 15:47:51;;;;;;;18.60;7.38;;;;;;;27.55;49.71;100686.19;21057923;28;20043;-68
2023/07/21 15:57:52;;;;;;;39.33;8.00;;;;;;;27.41;50.04;100684.72;21079890;28;20048;-67
2023/07/21 16:07:54;;;;;;;63.80;10.00;;;;;;;27.30;50.25;100679.41;21082375;28;20036;-68
2023/07/21 16:17:55;;;;;;;54.33;10.70;;;;;;;27.13;50.16;100661.75;21079182;28;20044;-69
2023/07/21 16:27:56;;;;;;;61.30;9.38;;;;;;;27.18;50.23;100670.00;21045919;28;20041;-67
2023/07/21 16:37:59;;;;;;;34.15;7.78;;;;;;;27.11;49.74;100659.25;21064213;28;20048;-69
2023/07/21 16:48:00;;;;;;;16.33;7.38;;;;;;;26.99;49.81;100657.09;21076216;28;20052;-68
2023/07/21 16:58:03;;;;;;;17.98;6.47;;;;;;;26.85;49.78;100634.78;21075219;28;20059;-68
2023/07/21 17:08:05;;;;;;;17.65;7.03;;;;;;;26.83;49.81;100627.81;21074337;28;20044;-67
2023/07/21 17:18:06;;;;;;;16.02;6.93;;;;;;;26.82;50.18;100628.97;21073673;28;20051;-68
2023/07/21 17:28:08;;;;;;;19.77;6.07;;;;;;;26.71;50.03;100617.25;21058046;28;20504;-66
2023/07/21 17:38:09;;;;;;;14.63;6.57;;;;;;;26.75;50.09;100618.22;21023527;28;20052;-68
2023/07/21 17:48:14;;;;;;;15.55;6.40;;;;;;;26.69;49.90;100625.16;21072211;28;20048;-70
2023/07/21 17:58:16;;;;;;;13.82;5.47;;;;;;;26.68;50.10;100629.13;21072714;28;20051;-69
2023/07/21 18:08:17;;;;;;;14.10;6.13;;;;;;;26.67;49.64;100624.69;21072286;28;20070;-66
2023/07/21 18:18:21;;;;;;;12.68;5.88;;;;;;;26.45;49.62;100599.53;21072375;28;20048;-68
2023/07/21 18:28:23;;;;;;;11.15;5.57;;;;;;;26.55;49.65;100613.25;21079937;28;20066;-67
2023/07/21 18:38:27;;;;;;;8.85;5.60;;;;;;;26.52;51.12;100591.44;21087565;28;20040;-68
2023/07/21 18:48:29;;;;;;;10.50;5.05;;;;;;;26.52;51.67;100580.22;21087829;28;20475;-68
2023/07/21 18:58:30;;;;;;;10.50;5.78;;;;;;;26.34;51.70;100568.97;21084070;28;20043;-68
2023/07/21 19:08:31;;;;;;;11.00;5.18;;;;;;;26.63;51.89;100603.22;21085783;28;20372;-67
2023/07/21 19:18:34;;;;;;;9.30;5.13;;;;;;;26.64;52.09;100588.84;21085911;28;20048;-67
2023/07/21 19:28:36;;;;;;;8.07;4.70;;;;;;;26.53;52.13;100584.72;21085211;28;20036;-67
2023/07/21 19:38:40;;;;;;;9.32;4.88;;;;;;;26.59;52.39;100592.63;21083406;28;20098;-68
2023/07/21 19:48:41;;;;;;;7.22;4.80;;;;;;;26.59;53.33;100589.81;21083293;28;20459;-66
2023/07/21 19:58:46;;;;;;;14.98;5.05;;;;;;;26.63;54.01;100592.81;21082068;28;20044;-67
2023/07/21 20:08:48;;;;;;;9.60;4.53;;;;;;;26.61;55.45;100600.72;21079698;28;20040;-66
2023/07/21 20:18:49;;;;;;;10.05;4.47;;;;;;;26.60;56.25;100599.88;21078862;28;20044;-66
2023/07/21 20:28:50;;;;;;;16.65;4.93;;;;;;;26.59;57.60;100606.66;21063954;28;20116;-69
2023/07/21 20:38:53;;;;;;;30.77;5.45;;;;;;;26.83;58.44;100596.94;21064900;28;20399;-75
2023/07/21 20:48:54;;;;;;;22.35;5.32;;;;;;;27.07;58.10;100588.84;21076482;28;20040;-76
2023/07/21 20:58:56;;;;;;;19.92;5.35;;;;;;;27.22;57.70;100595.97;21076312;28;20036;-68
2023/07/21 21:08:57;;;;;;;13.90;5.05;;;;;;;27.36;57.05;100595.78;21077375;28;20055;-67
2023/07/21 21:19:00;;;;;;;11.80;4.28;;;;;;;27.46;56.84;100586.19;21076731;28;20028;-68
2023/07/21 21:29:01;;;;;;;14.73;4.32;;;;;;;27.56;56.42;100569.78;21076694;28;20537;-68
2023/07/21 21:39:03;;;;;;;9.00;3.75;;;;;;;27.58;56.38;100549.75;21075467;28;20048;-67
2023/07/21 21:49:04;;;;;;;9.23;4.75;;;;;;;27.67;56.12;100563.78;21075292;28;20036;-66
2023/07/21 21:59:06;;;;;;;8.82;3.88;;;;;;;27.73;56.05;100577.38;21075383;28;20476;-70
2023/07/21 22:09:07;;;;;;;9.82;4.18;;;;;;;27.78;55.80;100576.34;21090482;28;20032;-67
2023/07/21 22:19:09;;;;;;;7.43;3.60;;;;;;;27.83;55.34;100568.56;21089163;28;20555;-67
2023/07/21 22:29:10;;;;;;;5.97;3.70;;;;;;;27.88;55.59;100580.78;21089889;28;20044;-67
2023/07/21 22:39:11;;;;;;;5.45;3.58;;;;;;;27.96;55.04;100577.13;21089102;28;20048;-68
2023/07/21 22:49:13;;;;;;;5.45;3.30;;;;;;;27.99;55.00;100587.66;21086763;28;20044;-69
2023/07/21 22:59:17;;;;;;;5.60;3.75;;;;;;;27.92;55.00;100576.13;21085126;28;20044;-68
2023/07/21 23:09:19;;;;;;;6.03;3.88;;;;;;;28.03;54.86;100594.28;21086564;28;20036;-68
2023/07/21 23:19:20;;;;;;;4.95;3.38;;;;;;;28.04;54.61;100596.75;21084043;28;20040;-68
2023/07/21 23:29:21;;;;;;;4.78;3.53;;;;;;;28.12;54.45;100603.50;21084992;28;20474;-68
2023/07/21 23:39:23;;;;;;;4.82;2.97;;;;;;;28.05;54.40;100597.59;21083904;28;20048;-69
2023/07/21 23:49:24;;;;;;;6.07;3.35;;;;;;;28.20;54.14;100621.50;21083501;28;20040;-68
2023/07/21 23:59:25;;;;;;;5.68;3.53;;;;;;;28.13;54.06;100619.19;21081277;28;20073;-68
